Time;durP1;ratioP1;P1;durP2;ratioP2;P2;SDS_P1;SDS_P2;PMS_P1;PMS_P2;Temp;Humidity;BMP_temperature;BMP_pressure;BME280_temperature;BME280_humidity;BME280_pressure;Samples;Min_cycle;Max_cycle;Signal;HPM_P1;HPM_P2
2023/07/12 00:01:20;;;;;;;7.60;2.03;;;;;;;;;;4933773;28;20880;-71
2023/07/12 00:03:45;;;;;;;8.00;2.22;;;;;;;;;;4933930;28;20452;-72
2023/07/12 00:06:15;;;;;;;5.53;1.83;;;;;;;;;;4934061;29;20191;-72
2023/07/12 00:08:40;;;;;;;4.00;1.75;;;;;;;;;;4932059;29;20195;-71
2023/07/12 00:11:16;;;;;;;5.80;1.80;;;;;;;;;;4931453;28;20213;-72
2023/07/12 00:13:42;;;;;;;6.30;1.60;;;;;;;;;;4934299;28;20639;-72
2023/07/12 00:16:22;;;;;;;6.78;1.60;;;;;;;;;;4935293;28;20182;-73
2023/07/12 00:18:48;;;;;;;6.57;1.40;;;;;;;;;;4936192;29;20359;-72
2023/07/12 00:21:22;;;;;;;3.58;1.60;;;;;;;;;;4966561;23;20247;-67
2023/07/12 00:23:47;;;;;;;3.78;1.70;;;;;;;;;;4963521;28;20401;-67
2023/07/12 00:26:39;;;;;;;4.10;1.60;;;;;;;;;;4963288;28;20187;-68
2023/07/12 00:29:05;;;;;;;3.42;1.52;;;;;;;;;;4962460;28;20216;-67
2023/07/12 00:31:31;;;;;;;4.22;1.77;;;;;;;;;;4944714;28;20295;-67
2023/07/12 00:33:56;;;;;;;5.15;1.20;;;;;;;;;;4944439;28;20184;-67
2023/07/12 00:36:23;;;;;;;4.63;1.52;;;;;;;;;;4949272;28;20192;-67
2023/07/12 00:38:49;;;;;;;4.45;1.38;;;;;;;;;;4946460;28;20191;-67
2023/07/12 00:41:24;;;;;;;7.18;2.08;;;;;;;;;;4947942;28;20200;-67
2023/07/12 00:43:59;;;;;;;5.97;1.70;;;;;;;;;;4948416;28;20658;-67
2023/07/12 00:46:30;;;;;;;5.45;2.08;;;;;;;;;;4948969;28;20200;-67
2023/07/12 00:48:56;;;;;;;5.22;1.73;;;;;;;;;;4949690;28;20192;-67
2023/07/12 00:51:27;;;;;;;3.33;1.75;;;;;;;;;;4949327;28;20209;-67
2023/07/12 00:53:52;;;;;;;10.05;2.03;;;;;;;;;;4948682;28;20217;-67
2023/07/12 00:56:17;;;;;;;5.72;2.20;;;;;;;;;;4948101;28;20195;-67
2023/07/12 00:58:44;;;;;;;4.60;2.05;;;;;;;;;;4950357;28;20195;-68
2023/07/12 01:01:10;;;;;;;5.30;2.40;;;;;;;;;;4947733;28;20731;-68
2023/07/12 01:03:36;;;;;;;5.68;1.83;;;;;;;;;;4947354;28;20193;-68
2023/07/12 01:06:03;;;;;;;6.95;2.05;;;;;;;;;;4951145;28;20196;-69
2023/07/12 01:08:29;;;;;;;6.30;2.55;;;;;;;;;;4949458;28;20558;-68
2023/07/12 01:10:55;;;;;;;5.00;2.13;;;;;;;;;;4945144;28;20235;-69
2023/07/12 01:13:21;;;;;;;6.05;2.33;;;;;;;;;;4943867;28;20216;-69
2023/07/12 01:15:47;;;;;;;8.43;2.28;;;;;;;;;;4943069;28;21649;-69
2023/07/12 01:18:12;;;;;;;11.77;3.10;;;;;;;;;;4945362;28;20379;-70
2023/07/12 01:20:38;;;;;;;7.70;2.13;;;;;;;;;;4944158;28;20691;-70
2023/07/12 01:23:03;;;;;;;6.65;2.60;;;;;;;;;;4941977;28;20672;-71
2023/07/12 01:25:45;;;;;;;6.53;2.28;;;;;;;;;;4944038;28;20267;-72
2023/07/12 01:28:11;;;;;;;6.65;3.17;;;;;;;;;;4942814;28;20193;-72
2023/07/12 01:30:37;;;;;;;13.35;3.55;;;;;;;;;;4943633;28;20231;-72
2023/07/12 01:33:03;;;;;;;6.75;3.20;;;;;;;;;;4943068;28;20265;-72
2023/07/12 01:35:29;;;;;;;11.98;3.03;;;;;;;;;;4943939;28;20188;-71
2023/07/12 01:37:54;;;;;;;7.47;3.47;;;;;;;;;;4943254;28;20183;-71
2023/07/12 01:40:19;;;;;;;9.30;2.83;;;;;;;;;;4947030;28;20208;-71
2023/07/12 01:42:44;;;;;;;5.32;2.63;;;;;;;;;;4948217;28;20688;-72
2023/07/12 01:45:10;;;;;;;6.30;2.40;;;;;;;;;;4947408;28;20198;-72
2023/07/12 01:47:35;;;;;;;8.80;2.92;;;;;;;;;;4948748;28;20200;-71
2023/07/12 01:50:00;;;;;;;11.38;3.03;;;;;;;;;;4949347;28;20204;-71
2023/07/12 01:52:26;;;;;;;6.93;2.58;;;;;;;;;;4947687;28;20657;-71
2023/07/12 01:54:51;;;;;;;3.97;2.30;;;;;;;;;;4950226;28;20185;-71
2023/07/12 01:57:16;;;;;;;6.28;2.75;;;;;;;;;;4947177;28;20191;-70
2023/07/12 01:59:41;;;;;;;5.45;2.00;;;;;;;;;;4947738;28;20201;-70
2023/07/12 02:02:07;;;;;;;10.82;2.85;;;;;;;;;;4949480;28;20651;-70
2023/07/12 02:04:32;;;;;;;8.90;2.42;;;;;;;;;;4948865;28;20192;-71
2023/07/12 02:06:57;;;;;;;9.23;2.58;;;;;;;;;;4949713;28;20189;-71
2023/07/12 02:09:23;;;;;;;7.82;2.63;;;;;;;;;;4945208;28;20655;-70
2023/07/12 02:11:48;;;;;;;5.40;2.22;;;;;;;;;;4942597;28;20279;-70
2023/07/12 02:14:13;;;;;;;10.40;2.50;;;;;;;;;;4942885;28;20189;-70
2023/07/12 02:16:38;;;;;;;5.75;2.65;;;;;;;;;;4954843;28;20681;-71
2023/07/12 02:19:04;;;;;;;5.35;1.95;;;;;;;;;;4955560;28;20188;-70
2023/07/12 02:21:29;;;;;;;7.03;2.83;;;;;;;;;;4957038;28;20212;-71
2023/07/12 02:23:54;;;;;;;12.07;2.80;;;;;;;;;;4957015;28;20196;-70
2023/07/12 02:26:19;;;;;;;11.85;3.47;;;;;;;;;;4958128;28;20254;-70
2023/07/12 02:28:45;;;;;;;9.90;3.10;;;;;;;;;;4956611;28;20666;-71
2023/07/12 02:31:21;;;;;;;6.72;2.53;;;;;;;;;;4956810;28;20698;-71
2023/07/12 02:33:47;;;;;;;13.93;3.97;;;;;;;;;;4951339;28;20211;-70
2023/07/12 02:36:12;;;;;;;9.55;2.90;;;;;;;;;;4946322;28;20227;-71
2023/07/12 02:38:38;;;;;;;9.05;3.15;;;;;;;;;;4947131;28;20817;-70
2023/07/12 02:41:05;;;;;;;10.15;3.28;;;;;;;;;;4949232;28;20689;-71
2023/07/12 02:43:30;;;;;;;11.30;3.30;;;;;;;;;;4953708;28;20214;-71
2023/07/12 02:45:55;;;;;;;12.73;3.55;;;;;;;;;;4948981;28;20570;-71
2023/07/12 02:48:20;;;;;;;13.32;3.60;;;;;;;;;;4952744;28;20667;-71
2023/07/12 02:50:46;;;;;;;12.00;3.63;;;;;;;;;;4949334;28;20343;-71
2023/07/12 02:53:18;;;;;;;8.05;3.55;;;;;;;;;;4949765;28;20230;-71
2023/07/12 02:55:43;;;;;;;9.65;3.95;;;;;;;;;;4950485;28;20633;-71
2023/07/12 02:58:08;;;;;;;17.23;4.32;;;;;;;;;;4949802;28;20259;-71
2023/07/12 03:00:33;;;;;;;10.93;4.30;;;;;;;;;;4949394;28;20760;-71
2023/07/12 03:02:59;;;;;;;11.15;4.40;;;;;;;;;;4948353;28;20274;-71
2023/07/12 03:05:24;;;;;;;11.32;4.07;;;;;;;;;;4947577;28;20195;-71
2023/07/12 03:07:51;;;;;;;11.38;4.82;;;;;;;;;;4948353;28;20836;-70
2023/07/12 03:10:16;;;;;;;11.95;4.68;;;;;;;;;;4947896;28;20216;-70
2023/07/12 03:12:42;;;;;;;8.07;5.20;;;;;;;;;;4947524;28;20211;-71
2023/07/12 03:15:07;;;;;;;11.05;5.57;;;;;;;;;;4944261;28;20181;-70
2023/07/12 03:17:32;;;;;;;15.63;5.40;;;;;;;;;;4943741;28;20316;-70
2023/07/12 03:19:58;;;;;;;9.93;5.15;;;;;;;;;;4942230;28;20840;-70
2023/07/12 03:22:23;;;;;;;8.48;4.88;;;;;;;;;;4941586;28;20672;-70
2023/07/12 03:24:48;;;;;;;13.93;5.28;;;;;;;;;;4942424;28;20191;-70
2023/07/12 03:27:13;;;;;;;12.38;5.00;;;;;;;;;;4945021;28;20196;-70
2023/07/12 03:29:38;;;;;;;13.35;4.63;;;;;;;;;;4945265;28;20213;-70
2023/07/12 03:32:05;;;;;;;10.45;4.00;;;;;;;;;;4944511;28;20514;-70
2023/07/12 03:34:31;;;;;;;10.75;4.57;;;;;;;;;;4943961;28;20202;-70
2023/07/12 03:36:56;;;;;;;12.65;4.50;;;;;;;;;;4946663;28;20185;-70
2023/07/12 03:39:21;;;;;;;7.35;3.40;;;;;;;;;;4951151;28;20189;-70
2023/07/12 03:41:46;;;;;;;11.15;4.15;;;;;;;;;;4950666;28;20579;-70
2023/07/12 03:44:12;;;;;;;10.43;4.15;;;;;;;;;;4950891;28;20553;-70
2023/07/12 03:46:37;;;;;;;17.30;4.63;;;;;;;;;;4950935;28;20639;-70
2023/07/12 03:49:03;;;;;;;11.25;4.70;;;;;;;;;;4950400;28;21268;-70
2023/07/12 03:51:28;;;;;;;9.27;4.05;;;;;;;;;;4948510;28;20295;-70
2023/07/12 03:53:53;;;;;;;9.27;3.92;;;;;;;;;;4951430;28;20291;-70
2023/07/12 03:56:19;;;;;;;12.40;5.90;;;;;;;;;;4951345;28;21348;-69
2023/07/12 03:58:44;;;;;;;12.52;4.25;;;;;;;;;;4950050;28;20366;-69
2023/07/12 04:01:10;;;;;;;12.75;4.03;;;;;;;;;;4951125;28;20210;-70
2023/07/12 04:03:36;;;;;;;9.02;4.53;;;;;;;;;;4952522;28;20196;-69
2023/07/12 04:06:03;;;;;;;6.05;4.30;;;;;;;;;;4951880;28;20184;-70
2023/07/12 04:08:28;;;;;;;11.52;5.55;;;;;;;;;;4950258;28;20185;-69
2023/07/12 04:10:54;;;;;;;12.93;5.45;;;;;;;;;;4951917;28;20223;-69
2023/07/12 04:13:20;;;;;;;15.20;6.28;;;;;;;;;;4950804;28;20279;-70
2023/07/12 04:15:45;;;;;;;15.43;5.93;;;;;;;;;;4951372;28;20192;-69
2023/07/12 04:18:11;;;;;;;16.35;5.88;;;;;;;;;;4950134;28;20181;-69
2023/07/12 04:20:36;;;;;;;11.60;6.05;;;;;;;;;;4950003;28;20221;-69
2023/07/12 04:23:01;;;;;;;10.32;6.85;;;;;;;;;;4948667;28;20239;-69
2023/07/12 04:25:27;;;;;;;11.57;6.13;;;;;;;;;;4950075;28;20659;-69
2023/07/12 04:27:52;;;;;;;12.40;6.80;;;;;;;;;;4949635;28;20217;-69
2023/07/12 04:30:17;;;;;;;11.55;6.63;;;;;;;;;;4950898;28;20219;-69
2023/07/12 04:32:43;;;;;;;13.75;6.15;;;;;;;;;;4949532;28;20215;-69
2023/07/12 04:35:10;;;;;;;15.35;6.72;;;;;;;;;;4949945;28;20184;-69
2023/07/12 04:37:36;;;;;;;11.35;6.50;;;;;;;;;;4943816;28;20190;-69
2023/07/12 04:40:01;;;;;;;12.18;7.00;;;;;;;;;;4949817;28;20287;-69
2023/07/12 04:42:26;;;;;;;12.73;7.28;;;;;;;;;;4948723;28;20338;-69
2023/07/12 04:44:52;;;;;;;11.02;7.00;;;;;;;;;;4952001;28;20203;-69
2023/07/12 04:47:17;;;;;;;10.18;6.50;;;;;;;;;;4950714;28;20197;-70
2023/07/12 04:49:43;;;;;;;12.32;6.82;;;;;;;;;;4949546;28;20287;-69
2023/07/12 04:52:09;;;;;;;10.23;6.20;;;;;;;;;;4949284;28;20698;-69
2023/07/12 04:54:34;;;;;;;11.52;6.53;;;;;;;;;;4948369;28;20676;-69
2023/07/12 04:57:00;;;;;;;14.27;6.40;;;;;;;;;;4949437;28;20192;-69
2023/07/12 04:59:25;;;;;;;11.52;7.20;;;;;;;;;;4951630;28;20669;-69
2023/07/12 05:01:50;;;;;;;12.82;6.15;;;;;;;;;;4950787;28;20188;-69
2023/07/12 05:04:15;;;;;;;12.82;6.97;;;;;;;;;;4950381;28;20204;-69
2023/07/12 05:06:40;;;;;;;10.25;6.55;;;;;;;;;;4949630;28;20181;-69
2023/07/12 05:09:06;;;;;;;14.23;6.40;;;;;;;;;;4950547;28;20195;-69
2023/07/12 05:11:31;;;;;;;9.70;6.43;;;;;;;;;;4947693;28;20343;-69
2023/07/12 05:13:56;;;;;;;11.45;6.53;;;;;;;;;;4949110;28;20219;-69
2023/07/12 05:16:21;;;;;;;12.68;6.55;;;;;;;;;;4945701;28;20181;-69
2023/07/12 05:18:47;;;;;;;15.82;6.20;;;;;;;;;;4949208;28;20274;-69
2023/07/12 05:21:12;;;;;;;11.98;6.20;;;;;;;;;;4947371;28;20300;-69
2023/07/12 05:23:39;;;;;;;12.30;6.20;;;;;;;;;;4943241;28;20685;-69
2023/07/12 05:26:05;;;;;;;10.25;6.53;;;;;;;;;;4943998;28;20212;-69
2023/07/12 05:28:30;;;;;;;8.60;5.45;;;;;;;;;;4946844;28;20291;-69
2023/07/12 05:30:55;;;;;;;10.70;6.07;;;;;;;;;;4948683;28;20211;-69
2023/07/12 05:33:20;;;;;;;12.25;5.70;;;;;;;;;;4950696;28;20299;-68
2023/07/12 05:35:46;;;;;;;9.20;5.55;;;;;;;;;;4951859;28;20188;-68
2023/07/12 05:38:11;;;;;;;12.52;5.65;;;;;;;;;;4947050;28;20188;-68
2023/07/12 05:40:37;;;;;;;9.70;5.50;;;;;;;;;;4947256;28;20219;-68
2023/07/12 05:43:02;;;;;;;11.63;6.18;;;;;;;;;;4947297;28;20279;-68
2023/07/12 05:45:27;;;;;;;8.93;5.45;;;;;;;;;;4950357;28;20216;-68
2023/07/12 05:47:52;;;;;;;12.35;6.05;;;;;;;;;;4949498;28;20188;-68
2023/07/12 05:50:19;;;;;;;14.48;6.20;;;;;;;;;;4950028;28;20208;-68
2023/07/12 05:52:44;;;;;;;8.80;5.30;;;;;;;;;;4946978;28;20708;-67
2023/07/12 05:55:11;;;;;;;12.35;6.20;;;;;;;;;;4947311;28;20185;-69
2023/07/12 05:57:36;;;;;;;13.30;5.60;;;;;;;;;;4947332;28;20184;-67
2023/07/12 06:00:02;;;;;;;16.55;6.63;;;;;;;;;;4949669;28;20733;-68
2023/07/12 06:02:27;;;;;;;9.43;5.10;;;;;;;;;;4947256;28;20244;-68
2023/07/12 06:04:52;;;;;;;7.30;5.38;;;;;;;;;;4947619;28;20319;-68
2023/07/12 06:07:18;;;;;;;11.15;5.95;;;;;;;;;;4943520;28;20189;-70
2023/07/12 06:09:43;;;;;;;8.70;5.90;;;;;;;;;;4945031;28;20216;-67
2023/07/12 06:12:09;;;;;;;13.35;5.53;;;;;;;;;;4946786;28;20283;-68
2023/07/12 06:14:34;;;;;;;8.45;4.70;;;;;;;;;;4947363;28;20201;-68
2023/07/12 06:16:59;;;;;;;13.88;4.68;;;;;;;;;;4944357;28;20207;-68
2023/07/12 06:19:25;;;;;;;12.38;4.75;;;;;;;;;;4943326;28;20184;-67
2023/07/12 06:21:50;;;;;;;9.75;4.45;;;;;;;;;;4970572;23;20361;-71
2023/07/12 06:24:15;;;;;;;10.02;4.82;;;;;;;;;;4966280;28;20188;-71
2023/07/12 06:26:40;;;;;;;10.57;5.20;;;;;;;;;;4969426;28;20693;-72
2023/07/12 06:29:05;;;;;;;9.35;4.43;;;;;;;;;;4971656;28;20631;-71
2023/07/12 06:31:31;;;;;;;13.30;5.40;;;;;;;;;;4964269;28;20809;-73
2023/07/12 06:34:00;;;;;;;9.00;4.75;;;;;;;;;;4963511;28;20212;-73
2023/07/12 06:36:25;;;;;;;18.63;5.35;;;;;;;;;;4963164;28;20262;-73
2023/07/12 06:38:51;;;;;;;12.35;5.00;;;;;;;;;;4960766;28;20183;-72
2023/07/12 06:41:16;;;;;;;14.15;6.40;;;;;;;;;;4959551;28;20207;-72
2023/07/12 06:43:41;;;;;;;12.60;4.38;;;;;;;;;;4960649;28;20222;-73
2023/07/12 06:46:06;;;;;;;10.05;4.57;;;;;;;;;;4960833;28;20192;-73
2023/07/12 06:48:32;;;;;;;9.98;4.97;;;;;;;;;;4960409;28;20184;-73
2023/07/12 06:50:57;;;;;;;11.00;4.63;;;;;;;;;;4961005;28;20585;-72
2023/07/12 06:53:22;;;;;;;10.88;4.30;;;;;;;;;;4961424;28;20723;-72
2023/07/12 06:55:47;;;;;;;7.28;4.07;;;;;;;;;;4964232;28;20692;-72
2023/07/12 06:58:13;;;;;;;11.05;3.95;;;;;;;;;;4967347;28;20214;-72
2023/07/12 07:00:39;;;;;;;11.77;4.45;;;;;;;;;;4968337;28;20207;-71
2023/07/12 07:03:04;;;;;;;7.30;3.60;;;;;;;;;;4969879;28;20753;-71
2023/07/12 07:05:29;;;;;;;8.48;3.70;;;;;;;;;;4973020;28;20985;-72
2023/07/12 07:07:54;;;;;;;8.73;3.63;;;;;;;;;;4972076;28;20192;-72
2023/07/12 07:10:20;;;;;;;8.85;3.95;;;;;;;;;;4972063;28;20227;-72
2023/07/12 07:12:45;;;;;;;14.68;4.80;;;;;;;;;;4973510;28;20311;-72
2023/07/12 07:15:10;;;;;;;8.32;3.55;;;;;;;;;;4972263;28;20257;-70
2023/07/12 07:17:35;;;;;;;9.32;3.50;;;;;;;;;;4973705;28;20580;-70
2023/07/12 07:20:01;;;;;;;14.93;5.28;;;;;;;;;;4973116;28;20192;-70
2023/07/12 07:22:26;;;;;;;7.93;4.75;;;;;;;;;;4967266;28;20570;-70
2023/07/12 07:24:51;;;;;;;10.82;3.63;;;;;;;;;;4970042;28;20295;-71
2023/07/12 07:27:17;;;;;;;10.95;3.25;;;;;;;;;;4966642;28;20195;-71
2023/07/12 07:29:42;;;;;;;13.95;4.18;;;;;;;;;;4970613;28;20192;-71
2023/07/12 07:32:08;;;;;;;8.60;3.28;;;;;;;;;;4970164;28;20313;-71
2023/07/12 07:34:33;;;;;;;7.32;2.80;;;;;;;;;;4971804;28;20196;-72
2023/07/12 07:36:58;;;;;;;9.93;3.60;;;;;;;;;;4972165;28;20180;-71
2023/07/12 07:39:24;;;;;;;7.47;3.03;;;;;;;;;;4973393;28;20625;-70
2023/07/12 07:41:49;;;;;;;10.43;3.45;;;;;;;;;;4971405;28;20851;-70
2023/07/12 07:44:14;;;;;;;7.75;2.95;;;;;;;;;;4971578;28;20219;-69
2023/07/12 07:46:39;;;;;;;9.38;3.17;;;;;;;;;;4973781;28;20180;-71
2023/07/12 07:49:04;;;;;;;8.85;3.03;;;;;;;;;;4971761;28;20193;-71
2023/07/12 07:51:33;;;;;;;9.82;2.90;;;;;;;;;;4972395;28;20231;-71
2023/07/12 07:53:58;;;;;;;11.13;2.97;;;;;;;;;;4971801;28;20676;-70
2023/07/12 07:56:23;;;;;;;10.88;2.80;;;;;;;;;;4971957;28;20658;-71
2023/07/12 07:58:48;;;;;;;11.80;3.47;;;;;;;;;;4973670;28;20180;-70
2023/07/12 08:01:13;;;;;;;7.83;2.80;;;;;;;;;;4973675;28;20215;-70
2023/07/12 08:03:39;;;;;;;8.23;2.60;;;;;;;;;;4972214;28;20426;-71
2023/07/12 08:06:05;;;;;;;7.93;2.80;;;;;;;;;;4971678;28;20188;-70
2023/07/12 08:08:30;;;;;;;13.10;3.10;;;;;;;;;;4968545;28;20194;-71
2023/07/12 08:10:55;;;;;;;12.25;3.35;;;;;;;;;;4968960;28;20233;-70
2023/07/12 08:13:21;;;;;;;10.70;2.63;;;;;;;;;;4964484;28;20211;-71
2023/07/12 08:15:46;;;;;;;13.13;3.50;;;;;;;;;;4968172;28;20191;-70
2023/07/12 08:18:12;;;;;;;10.90;2.70;;;;;;;;;;4972900;28;20603;-70
2023/07/12 08:20:37;;;;;;;7.78;2.92;;;;;;;;;;4965881;28;20216;-69
2023/07/12 08:23:03;;;;;;;10.20;2.28;;;;;;;;;;4968853;28;20196;-70
2023/07/12 08:25:29;;;;;;;8.77;3.15;;;;;;;;;;4968036;28;20793;-70
2023/07/12 08:27:54;;;;;;;10.93;2.80;;;;;;;;;;4963793;28;20237;-70
2023/07/12 08:30:20;;;;;;;9.85;3.00;;;;;;;;;;4964769;28;20882;-70
2023/07/12 08:32:45;;;;;;;8.70;3.08;;;;;;;;;;4962883;28;20643;-71
2023/07/12 08:35:11;;;;;;;8.82;2.88;;;;;;;;;;4965148;28;20190;-72
2023/07/12 08:37:36;;;;;;;5.90;2.45;;;;;;;;;;4963061;28;21008;-69
2023/07/12 08:40:02;;;;;;;8.32;3.00;;;;;;;;;;4962549;28;20226;-70
2023/07/12 08:42:35;;;;;;;7.18;3.30;;;;;;;;;;4962979;28;20187;-70
2023/07/12 08:45:01;;;;;;;9.10;2.50;;;;;;;;;;4961891;28;20183;-71
2023/07/12 08:47:28;;;;;;;10.38;3.08;;;;;;;;;;4963812;28;20195;-71
2023/07/12 08:49:53;;;;;;;10.80;2.47;;;;;;;;;;4962509;28;20192;-71
2023/07/12 08:52:22;;;;;;;11.95;2.40;;;;;;;;;;4965702;28;20222;-71
2023/07/12 08:54:48;;;;;;;3.45;2.05;;;;;;;;;;4963854;28;20874;-70
2023/07/12 08:57:15;;;;;;;7.60;2.10;;;;;;;;;;4964629;28;20184;-71
2023/07/12 08:59:41;;;;;;;10.15;2.40;;;;;;;;;;4964340;28;20187;-71
2023/07/12 09:02:18;;;;;;;9.93;2.63;;;;;;;;;;4963135;28;20200;-71
2023/07/12 09:04:44;;;;;;;6.38;3.03;;;;;;;;;;4963786;28;20260;-71
2023/07/12 09:07:09;;;;;;;4.90;1.90;;;;;;;;;;4963115;28;20188;-72
2023/07/12 09:09:38;;;;;;;4.80;2.37;;;;;;;;;;4968043;28;20191;-71
2023/07/12 09:12:07;;;;;;;7.53;2.28;;;;;;;;;;4961632;28;20445;-70
2023/07/12 09:14:34;;;;;;;6.03;2.03;;;;;;;;;;4959350;28;20187;-70
2023/07/12 09:16:59;;;;;;;4.40;1.75;;;;;;;;;;4964092;28;20672;-70
2023/07/12 09:19:27;;;;;;;8.95;2.10;;;;;;;;;;4963123;28;20279;-70
2023/07/12 09:22:16;;;;;;;6.18;2.08;;;;;;;;;;4960829;28;20262;-70
2023/07/12 09:24:42;;;;;;;4.97;1.90;;;;;;;;;;4955217;28;20414;-70
2023/07/12 09:27:18;;;;;;;7.38;2.53;;;;;;;;;;4965237;28;20188;-70
2023/07/12 09:29:43;;;;;;;8.13;2.28;;;;;;;;;;4963881;28;20207;-70
2023/07/12 09:32:15;;;;;;;4.95;2.10;;;;;;;;;;4964562;28;20243;-70
2023/07/12 09:34:40;;;;;;;9.05;1.80;;;;;;;;;;4976397;28;20184;-70
2023/07/12 09:37:12;;;;;;;5.22;1.83;;;;;;;;;;4960671;28;20199;-70
2023/07/12 09:39:38;;;;;;;4.97;2.53;;;;;;;;;;4962449;28;20179;-69
2023/07/12 09:42:03;;;;;;;3.77;1.67;;;;;;;;;;4963065;28;20484;-70
2023/07/12 09:44:30;;;;;;;4.88;2.22;;;;;;;;;;4961651;28;20430;-70
2023/07/12 09:47:04;;;;;;;3.50;1.48;;;;;;;;;;4963256;28;20188;-70
2023/07/12 09:50:05;;;;;;;7.95;1.63;;;;;;;;;;4962807;28;20192;-70
2023/07/12 09:52:33;;;;;;;7.95;1.52;;;;;;;;;;4923168;28;20213;-70
2023/07/12 09:55:03;;;;;;;20.38;1.83;;;;;;;;;;4954738;28;20203;-70
2023/07/12 09:57:31;;;;;;;2.05;1.67;;;;;;;;;;4961158;28;20192;-72
2023/07/12 10:00:02;;;;;;;5.50;1.73;;;;;;;;;;4961409;28;21061;-69
2023/07/12 10:02:36;;;;;;;7.80;2.20;;;;;;;;;;4964035;28;20246;-70
2023/07/12 10:05:04;;;;;;;6.03;1.95;;;;;;;;;;4963551;28;20183;-70
2023/07/12 10:07:36;;;;;;;6.18;1.67;;;;;;;;;;4962597;28;20196;-70
2023/07/12 10:10:01;;;;;;;3.85;1.95;;;;;;;;;;4961399;28;20358;-71
2023/07/12 10:12:29;;;;;;;6.93;1.60;;;;;;;;;;4961868;28;20402;-70
2023/07/12 10:14:54;;;;;;;7.88;1.17;;;;;;;;;;4963462;28;20191;-70
2023/07/12 10:17:37;;;;;;;2.15;1.60;;;;;;;;;;4961954;28;20192;-70
2023/07/12 10:20:03;;;;;;;3.13;1.95;;;;;;;;;;4962774;28;20188;-71
2023/07/12 10:22:32;;;;;;;3.28;1.45;;;;;;;;;;4961784;28;20636;-71
2023/07/12 10:24:58;;;;;;;5.10;1.65;;;;;;;;;;4961802;28;20192;-69
2023/07/12 10:27:24;;;;;;;4.20;1.40;;;;;;;;;;4963280;28;20188;-70
2023/07/12 10:30:02;;;;;;;6.55;2.17;;;;;;;;;;4966734;28;20192;-70
2023/07/12 10:32:31;;;;;;;3.90;1.40;;;;;;;;;;4962172;28;20221;-69
2023/07/12 10:35:15;;;;;;;4.10;1.60;;;;;;;;;;4961708;28;20674;-70
2023/07/12 10:37:44;;;;;;;5.35;1.83;;;;;;;;;;4962734;28;20219;-70
2023/07/12 10:40:15;;;;;;;6.32;2.08;;;;;;;;;;4960948;28;20218;-70
2023/07/12 10:42:43;;;;;;;4.75;1.35;;;;;;;;;;4961749;28;20188;-70
2023/07/12 10:45:15;;;;;;;9.65;2.00;;;;;;;;;;4966356;28;20191;-69
2023/07/12 10:47:42;;;;;;;4.65;2.10;;;;;;;;;;4962247;28;22505;-69
2023/07/12 10:50:20;;;;;;;5.63;2.03;;;;;;;;;;4960541;28;20855;-70
2023/07/12 10:53:03;;;;;;;5.47;2.20;;;;;;;;;;4960117;28;20211;-71
2023/07/12 10:55:34;;;;;;;6.70;1.98;;;;;;;;;;4960850;28;20546;-71
2023/07/12 10:58:15;;;;;;;3.10;1.02;;;;;;;;;;4965222;28;20261;-71
2023/07/12 11:01:09;;;;;;;2.22;0.98;;;;;;;;;;4962525;28;20211;-70
2023/07/12 11:03:43;;;;;;;3.97;1.23;;;;;;;;;;4947143;28;20766;-69
2023/07/12 11:06:22;;;;;;;4.18;1.30;;;;;;;;;;4959493;28;20192;-69
2023/07/12 11:08:55;;;;;;;3.85;1.25;;;;;;;;;;4962296;28;20816;-69
2023/07/12 11:11:20;;;;;;;4.30;1.02;;;;;;;;;;4958615;28;20702;-70
2023/07/12 11:13:46;;;;;;;5.05;1.52;;;;;;;;;;4960052;28;20207;-70
2023/07/12 11:16:15;;;;;;;3.70;1.30;;;;;;;;;;4962031;28;20196;-70
2023/07/12 11:18:47;;;;;;;3.83;1.52;;;;;;;;;;4962374;28;20188;-70
2023/07/12 11:21:24;;;;;;;5.55;1.55;;;;;;;;;;4961689;28;20215;-70
2023/07/12 11:23:49;;;;;;;4.07;1.60;;;;;;;;;;4962783;28;20188;-71
2023/07/12 11:26:28;;;;;;;4.00;1.50;;;;;;;;;;4964839;28;21010;-70
2023/07/12 11:29:13;;;;;;;6.85;2.03;;;;;;;;;;4963331;28;20187;-71
2023/07/12 11:31:40;;;;;;;5.82;2.25;;;;;;;;;;4962628;28;20235;-72
2023/07/12 11:34:14;;;;;;;5.53;1.88;;;;;;;;;;4961841;28;20274;-71
2023/07/12 11:36:40;;;;;;;5.88;1.60;;;;;;;;;;4958858;28;20214;-70
2023/07/12 11:39:13;;;;;;;5.43;2.17;;;;;;;;;;4960500;28;20262;-71
2023/07/12 11:41:39;;;;;;;3.67;1.77;;;;;;;;;;4960362;28;20294;-71
2023/07/12 11:44:06;;;;;;;4.68;1.48;;;;;;;;;;4958274;28;20179;-70
2023/07/12 11:46:38;;;;;;;9.43;2.28;;;;;;;;;;4961691;28;20188;-71
2023/07/12 11:49:24;;;;;;;3.75;2.08;;;;;;;;;;4964049;28;20196;-71
2023/07/12 11:51:53;;;;;;;7.00;1.85;;;;;;;;;;4951472;28;20219;-71
2023/07/12 11:54:20;;;;;;;4.28;1.88;;;;;;;;;;4961940;28;20812;-70
2023/07/12 11:56:46;;;;;;;5.15;2.20;;;;;;;;;;4963849;28;20666;-71
2023/07/12 11:59:15;;;;;;;5.43;2.88;;;;;;;;;;4964736;28;21013;-70
2023/07/12 12:01:42;;;;;;;6.40;1.73;;;;;;;;;;4961360;28;20211;-71
2023/07/12 12:04:07;;;;;;;3.00;1.60;;;;;;;;;;4961744;28;20191;-70
2023/07/12 12:06:33;;;;;;;4.88;1.75;;;;;;;;;;4965330;28;20188;-71
2023/07/12 12:08:58;;;;;;;4.95;1.73;;;;;;;;;;4966774;28;20214;-71
2023/07/12 12:11:25;;;;;;;3.65;1.65;;;;;;;;;;4962982;28;20303;-71
2023/07/12 12:13:51;;;;;;;3.33;1.30;;;;;;;;;;4962827;28;20583;-70
2023/07/12 12:16:17;;;;;;;7.53;1.50;;;;;;;;;;4962186;28;20299;-70
2023/07/12 12:18:49;;;;;;;5.10;1.87;;;;;;;;;;4966096;28;20188;-70
2023/07/12 12:21:15;;;;;;;3.33;1.67;;;;;;;;;;4973160;23;20569;-68
2023/07/12 12:23:41;;;;;;;5.15;1.80;;;;;;;;;;4951715;28;20289;-68
2023/07/12 12:26:21;;;;;;;4.18;1.33;;;;;;;;;;4950794;28;20204;-69
2023/07/12 12:28:55;;;;;;;3.28;1.40;;;;;;;;;;4953128;28;20184;-68
2023/07/12 12:31:22;;;;;;;4.97;1.67;;;;;;;;;;4944642;28;20705;-68
2023/07/12 12:33:51;;;;;;;3.67;1.48;;;;;;;;;;4938346;29;20863;-68
2023/07/12 12:36:22;;;;;;;3.88;1.30;;;;;;;;;;4949835;28;20686;-69
2023/07/12 12:38:55;;;;;;;7.10;1.20;;;;;;;;;;4940256;29;20267;-68
2023/07/12 12:41:20;;;;;;;1.95;1.30;;;;;;;;;;4933051;28;20205;-68
2023/07/12 12:43:55;;;;;;;3.38;1.35;;;;;;;;;;4931803;29;20177;-68
2023/07/12 12:46:20;;;;;;;3.15;1.20;;;;;;;;;;4932968;29;20208;-69
2023/07/12 12:48:48;;;;;;;1.27;0.70;;;;;;;;;;4935393;28;20197;-71
2023/07/12 12:51:13;;;;;;;1.88;0.93;;;;;;;;;;4935496;28;20231;-69
2023/07/12 12:53:38;;;;;;;2.00;0.90;;;;;;;;;;4934278;28;20931;-66
2023/07/12 12:56:04;;;;;;;3.13;0.80;;;;;;;;;;4932197;29;20589;-69
2023/07/12 12:58:29;;;;;;;2.63;0.63;;;;;;;;;;4932515;28;20181;-67
2023/07/12 13:00:54;;;;;;;11.27;1.08;;;;;;;;;;4931540;29;20209;-69
2023/07/12 13:03:20;;;;;;;4.03;1.00;;;;;;;;;;4930157;28;20211;-69
2023/07/12 13:05:45;;;;;;;1.52;0.95;;;;;;;;;;4932684;29;21062;-67
2023/07/12 13:08:14;;;;;;;3.20;0.80;;;;;;;;;;4943579;28;20185;-67
2023/07/12 13:10:39;;;;;;;1.83;0.80;;;;;;;;;;4932190;28;20259;-68
2023/07/12 13:13:05;;;;;;;3.72;0.90;;;;;;;;;;4928956;29;20224;-68
2023/07/12 13:15:30;;;;;;;3.85;0.70;;;;;;;;;;4929741;29;20217;-67
2023/07/12 13:17:55;;;;;;;0.98;0.57;;;;;;;;;;4931127;29;20268;-68
2023/07/12 13:20:21;;;;;;;2.08;1.02;;;;;;;;;;4931075;28;20177;-68
2023/07/12 13:22:47;;;;;;;2.67;0.60;;;;;;;;;;4928293;29;21280;-67
2023/07/12 13:25:12;;;;;;;2.03;1.10;;;;;;;;;;4928728;28;20934;-67
2023/07/12 13:27:39;;;;;;;1.08;0.60;;;;;;;;;;4931368;28;20205;-68
2023/07/12 13:30:09;;;;;;;1.52;0.88;;;;;;;;;;4930208;29;20189;-68
2023/07/12 13:32:34;;;;;;;2.80;0.88;;;;;;;;;;4927881;28;20304;-69
2023/07/12 13:34:59;;;;;;;2.78;0.95;;;;;;;;;;4933053;29;20995;-67
2023/07/12 13:37:25;;;;;;;2.47;0.90;;;;;;;;;;4935212;29;20271;-68
2023/07/12 13:39:51;;;;;;;3.38;1.05;;;;;;;;;;4931740;29;20563;-68
2023/07/12 13:42:17;;;;;;;1.75;0.90;;;;;;;;;;4931277;28;20209;-68
2023/07/12 13:44:43;;;;;;;4.72;1.02;;;;;;;;;;4931447;29;20192;-68
2023/07/12 13:47:15;;;;;;;3.95;1.08;;;;;;;;;;4932053;29;20188;-69
2023/07/12 13:49:41;;;;;;;2.58;0.80;;;;;;;;;;4931260;29;20196;-67
2023/07/12 13:52:09;;;;;;;3.42;1.55;;;;;;;;;;4930357;28;20205;-67
2023/07/12 13:54:36;;;;;;;2.65;1.25;;;;;;;;;;4930263;29;20185;-67
2023/07/12 13:57:02;;;;;;;2.67;0.90;;;;;;;;;;4932883;29;20227;-68
2023/07/12 13:59:27;;;;;;;2.55;1.00;;;;;;;;;;4934822;29;20271;-68
2023/07/12 14:01:53;;;;;;;1.30;0.80;;;;;;;;;;4933427;28;20292;-68
2023/07/12 14:04:18;;;;;;;3.75;1.00;;;;;;;;;;4931474;29;20272;-68
2023/07/12 14:06:43;;;;;;;2.70;0.85;;;;;;;;;;4931435;29;20193;-69
2023/07/12 14:09:09;;;;;;;1.85;0.90;;;;;;;;;;4932077;29;20663;-68
2023/07/12 14:11:34;;;;;;;2.22;0.70;;;;;;;;;;4932685;28;20213;-67
2023/07/12 14:13:59;;;;;;;2.80;1.13;;;;;;;;;;4931062;29;20220;-68
2023/07/12 14:16:26;;;;;;;1.53;0.80;;;;;;;;;;4932521;29;20618;-68
2023/07/12 14:18:51;;;;;;;2.67;0.98;;;;;;;;;;4931235;29;20529;-68
2023/07/12 14:21:19;;;;;;;6.05;1.63;;;;;;;;;;4930629;28;20221;-67
2023/07/12 14:23:47;;;;;;;1.42;0.80;;;;;;;;;;4930046;29;20572;-68
2023/07/12 14:26:19;;;;;;;2.17;0.95;;;;;;;;;;4938919;28;20230;-67
2023/07/12 14:28:47;;;;;;;2.10;0.90;;;;;;;;;;4929656;29;20237;-68
2023/07/12 14:31:13;;;;;;;1.15;0.68;;;;;;;;;;4928645;28;20205;-68
2023/07/12 14:33:38;;;;;;;5.57;0.88;;;;;;;;;;4930785;28;20710;-68
2023/07/12 14:36:04;;;;;;;3.58;1.13;;;;;;;;;;4930276;28;20220;-67
2023/07/12 14:38:29;;;;;;;3.47;0.82;;;;;;;;;;4929073;28;20637;-68